Terminal Aerodrome Forecast
Issued by NWS

Home | Current Version | Previous Version | Text Only | Print | Product List | Glossary On
Versions: 1 2 3 4 5 6 7 8 9 10 11 12 13 14
000
FTUS41 KPHI 210500
TAFMIV
TAF
KMIV 210539Z 2106/2206 VRB02KT P6SM SCT070 BKN120
     FM210900 VRB02KT 5SM BR SCT090
     FM211400 16004KT P6SM SCT040 BKN100
     FM212200 14006KT P6SM VCSH BKN040 BKN100
     FM220000 12003KT 6SM -SHRA SCT025 BKN040
      TEMPO 2203/2206 5SM SHRA BKN025=

USA.gov is the U.S. government's official web portal to all federal, state and local government web resources and services.